Time;durP1;ratioP1;P1;durP2;ratioP2;P2;SDS_P1;SDS_P2;PMS_P1;PMS_P2;Temp;Humidity;BMP_temperature;BMP_pressure;BME280_temperature;BME280_humidity;BME280_pressure;Samples;Min_cycle;Max_cycle;Signal;HPM_P1;HPM_P2
2023/09/09 00:00:51;;;;;;;7.20;6.00;;;;;;;13.40;86.08;100986.75;105292;1257;69078;-63
2023/09/09 00:03:34;;;;;;;8.40;6.40;;;;;;;13.41;86.47;100987.61;105315;1256;69120;-63
2023/09/09 00:06:11;;;;;;;8.20;6.40;;;;;;;13.41;86.63;100984.29;105293;1259;74492;-63
2023/09/09 00:08:39;;;;;;;8.50;6.70;;;;;;;13.39;86.56;100982.42;105289;1259;83191;-63
2023/09/09 00:11:06;;;;;;;9.40;6.20;;;;;;;13.36;86.45;100983.75;105307;1256;73843;-63
2023/09/09 00:13:33;;;;;;;8.10;6.30;;;;;;;13.34;86.63;100982.98;105332;1257;69256;-63
2023/09/09 00:16:01;;;;;;;7.70;6.30;;;;;;;13.32;86.56;100982.88;105362;1259;69179;-63
2023/09/09 00:18:28;;;;;;;7.40;6.50;;;;;;;13.30;86.50;100981.20;105322;1256;74584;-63
2023/09/09 00:20:55;;;;;;;7.70;5.70;;;;;;;13.28;86.60;100980.21;105261;1259;83884;-63
2023/09/09 00:23:22;;;;;;;6.60;5.80;;;;;;;13.28;86.80;100980.40;105352;1257;73635;-63
2023/09/09 00:25:49;;;;;;;8.70;5.90;;;;;;;13.28;86.89;100980.59;105256;1259;69355;-63
2023/09/09 00:28:16;;;;;;;7.90;5.80;;;;;;;13.26;86.92;100980.64;105301;1257;69125;-63
2023/09/09 00:30:44;;;;;;;6.80;5.90;;;;;;;13.24;86.88;100980.70;105343;1258;75652;-63
2023/09/09 00:33:12;;;;;;;6.80;5.50;;;;;;;13.23;87.21;100979.17;105313;1257;82748;-63
2023/09/09 00:35:39;;;;;;;8.00;6.50;;;;;;;13.21;87.12;100973.77;105289;1256;73666;-63
2023/09/09 00:38:08;;;;;;;10.00;6.30;;;;;;;13.19;87.03;100974.23;105361;1259;69102;-63
2023/09/09 00:40:35;;;;;;;9.00;6.10;;;;;;;13.18;87.18;100972.50;105375;1259;69141;-63
2023/09/09 00:43:03;;;;;;;10.10;6.40;;;;;;;13.17;87.42;100972.19;105348;1257;74585;-64
2023/09/09 00:45:30;;;;;;;6.70;5.50;;;;;;;13.17;87.30;100970.80;105304;1257;82368;-63
2023/09/09 00:47:57;;;;;;;9.20;6.10;;;;;;;13.15;87.27;100971.37;105304;1257;73708;-63
2023/09/09 00:50:24;;;;;;;7.70;5.80;;;;;;;13.13;87.30;100972.48;105319;1256;69116;-63
2023/09/09 00:52:51;;;;;;;6.90;5.70;;;;;;;13.12;87.40;100970.08;105264;1257;69179;-63
2023/09/09 00:55:18;;;;;;;6.60;5.40;;;;;;;13.12;87.40;100970.80;105325;1257;74495;-63
2023/09/09 00:57:45;;;;;;;6.20;5.60;;;;;;;13.10;87.53;100971.06;105279;1257;82776;-63
2023/09/09 01:00:13;;;;;;;6.90;6.20;;;;;;;13.07;87.62;100969.92;105282;1256;72662;-63
2023/09/09 01:02:40;;;;;;;8.40;6.00;;;;;;;13.06;87.67;100969.81;105187;1256;69163;-63
2023/09/09 01:05:09;;;;;;;7.50;5.80;;;;;;;13.03;87.64;100969.21;105347;1257;69081;-63
2023/09/09 01:07:47;;;;;;;7.10;5.90;;;;;;;13.03;88.05;100969.94;105354;1259;75679;-63
2023/09/09 01:10:18;;;;;;;6.90;6.10;;;;;;;13.01;87.88;100970.00;105352;1257;83149;-63
2023/09/09 01:12:45;;;;;;;7.50;6.20;;;;;;;12.99;88.18;100971.48;105106;1257;71569;-63
2023/09/09 01:15:12;;;;;;;7.70;5.60;;;;;;;12.98;88.03;100976.59;105072;1260;69259;-63
2023/09/09 01:17:41;;;;;;;9.00;6.30;;;;;;;12.98;88.17;100980.81;105356;1256;69141;-63
2023/09/09 01:20:14;;;;;;;9.00;6.00;;;;;;;12.97;88.01;100982.80;105366;1256;75716;-63
2023/09/09 01:22:43;;;;;;;7.00;6.00;;;;;;;12.94;88.00;100985.35;105338;1257;83142;-63
2023/09/09 01:25:11;;;;;;;7.60;6.50;;;;;;;12.92;88.13;100984.54;105341;1256;72346;-63
2023/09/09 01:27:39;;;;;;;6.70;5.80;;;;;;;12.91;88.05;100985.27;105376;1256;69194;-63
2023/09/09 01:30:08;;;;;;;8.00;6.10;;;;;;;12.90;88.12;100985.66;105269;1259;69151;-63
2023/09/09 01:32:35;;;;;;;6.80;6.10;;;;;;;12.89;88.25;100985.70;105372;1256;75826;-63
2023/09/09 01:35:05;;;;;;;7.20;6.00;;;;;;;12.88;88.44;100983.45;105119;1260;83190;-63
2023/09/09 01:37:33;;;;;;;8.30;6.30;;;;;;;12.88;88.34;100989.44;105315;1256;73716;-63
2023/09/09 01:40:08;;;;;;;9.30;7.20;;;;;;;12.87;88.74;100989.46;105398;1256;69532;-63
2023/09/09 01:42:37;;;;;;;7.50;6.10;;;;;;;12.88;88.81;100991.86;105366;1259;69312;-63
2023/09/09 01:45:04;;;;;;;7.30;6.00;;;;;;;12.88;88.76;100989.77;105415;1259;75936;-63
2023/09/09 01:47:32;;;;;;;8.20;6.30;;;;;;;12.86;88.68;100991.77;105345;1259;83618;-63
2023/09/09 01:49:59;;;;;;;9.50;6.30;;;;;;;12.85;88.87;100991.81;105283;1257;73637;-63
2023/09/09 01:52:26;;;;;;;9.10;6.30;;;;;;;12.84;88.92;100986.77;105308;1259;69179;-63
2023/09/09 01:54:53;;;;;;;10.70;6.60;;;;;;;12.84;89.14;100986.59;105287;1256;69075;-63
2023/09/09 01:57:22;;;;;;;7.40;6.50;;;;;;;12.87;89.39;100986.11;105295;1256;75488;-63
2023/09/09 01:59:49;;;;;;;7.40;6.50;;;;;;;12.90;89.52;100984.98;105319;1257;82391;-63
2023/09/09 02:02:16;;;;;;;9.90;6.40;;;;;;;12.89;89.25;100983.45;105266;1257;73381;-63
2023/09/09 02:04:43;;;;;;;8.80;6.10;;;;;;;12.87;89.08;100985.27;105284;1259;69194;-63
2023/09/09 02:07:11;;;;;;;7.00;6.30;;;;;;;12.83;89.13;100983.64;105351;1256;69122;-63
2023/09/09 02:09:38;;;;;;;9.70;6.80;;;;;;;12.84;89.67;100982.38;105297;1255;75655;-63
2023/09/09 02:12:05;;;;;;;8.20;6.50;;;;;;;12.89;89.87;100976.73;105367;1259;83254;-63
2023/09/09 02:14:33;;;;;;;8.70;6.80;;;;;;;12.88;89.39;100977.14;105274;1257;72867;-63
2023/09/09 02:17:00;;;;;;;7.90;6.90;;;;;;;12.86;89.47;100979.52;105319;1256;69176;-63
2023/09/09 02:19:27;;;;;;;8.40;6.60;;;;;;;12.83;89.54;100976.61;105368;1259;69301;-63
2023/09/09 02:21:55;;;;;;;9.00;6.70;;;;;;;12.80;89.35;100976.23;105302;1257;75668;-63
2023/09/09 02:24:22;;;;;;;7.10;6.00;;;;;;;12.78;89.42;100977.34;105291;1259;83252;-63
2023/09/09 02:26:50;;;;;;;9.40;7.10;;;;;;;12.77;89.54;100974.06;105351;1256;73374;-63
2023/09/09 02:29:17;;;;;;;8.30;6.30;;;;;;;12.73;89.44;100973.83;105280;1256;69118;-63
2023/09/09 02:31:44;;;;;;;7.30;6.30;;;;;;;12.71;89.56;100973.76;105327;1259;69155;-63
2023/09/09 02:34:12;;;;;;;7.30;6.00;;;;;;;12.69;89.62;100975.92;105299;1256;75679;-63
2023/09/09 02:36:44;;;;;;;8.00;6.10;;;;;;;12.68;89.63;100978.05;105112;1261;83318;-63
2023/09/09 02:39:11;;;;;;;9.30;6.20;;;;;;;12.67;89.78;100978.09;105335;1257;73760;-63
2023/09/09 02:41:38;;;;;;;7.50;6.30;;;;;;;12.66;89.83;100980.91;105269;1256;69128;-63
2023/09/09 02:44:05;;;;;;;8.90;6.80;;;;;;;12.67;89.98;100979.15;105359;1259;69115;-63
2023/09/09 02:46:33;;;;;;;9.40;6.90;;;;;;;12.66;90.01;100977.23;105361;1257;75590;-63
2023/09/09 02:49:00;;;;;;;8.20;6.70;;;;;;;12.65;89.89;100978.69;105159;1260;83422;-63
2023/09/09 02:51:27;;;;;;;8.70;6.80;;;;;;;12.64;90.10;100978.19;105113;1257;72568;-63
2023/09/09 02:53:54;;;;;;;11.30;6.70;;;;;;;12.65;90.33;100979.75;105106;1257;69227;-63
2023/09/09 02:56:21;;;;;;;7.70;6.70;;;;;;;12.67;90.43;100982.31;105291;1256;69183;-63
2023/09/09 02:58:48;;;;;;;7.90;6.40;;;;;;;12.66;90.24;100978.84;105142;1256;75531;-63
2023/09/09 03:01:15;;;;;;;9.00;6.40;;;;;;;12.64;90.10;100981.55;105332;1260;83271;-63
2023/09/09 03:03:42;;;;;;;7.10;6.40;;;;;;;12.63;90.24;100980.35;105307;1259;73662;-63
2023/09/09 03:06:11;;;;;;;7.20;6.20;;;;;;;12.61;90.02;100977.97;105330;1259;69237;-63
2023/09/09 03:08:38;;;;;;;7.70;6.80;;;;;;;12.61;90.47;100975.34;105331;1256;69219;-64
2023/09/09 03:11:05;;;;;;;8.70;6.50;;;;;;;12.66;90.81;100974.48;105314;1257;75467;-63
2023/09/09 03:13:33;;;;;;;7.00;6.20;;;;;;;12.68;90.92;100978.25;105318;1259;83609;-63
2023/09/09 03:16:00;;;;;;;7.00;6.20;;;;;;;12.69;90.89;100980.85;105367;1257;72484;-63
2023/09/09 03:18:27;;;;;;;8.00;6.70;;;;;;;12.72;91.28;100975.98;105324;1259;69296;-63
2023/09/09 03:20:54;;;;;;;9.00;6.70;;;;;;;12.72;90.98;100973.17;105293;1256;69187;-63
2023/09/09 03:23:21;;;;;;;8.20;6.00;;;;;;;12.67;90.56;100971.77;105337;1257;74671;-63
2023/09/09 03:25:48;;;;;;;6.90;6.10;;;;;;;12.64;90.67;100971.39;105302;1259;83446;-63
2023/09/09 03:28:15;;;;;;;8.80;6.40;;;;;;;12.64;90.75;100975.41;105252;1256;73796;-63
2023/09/09 03:30:56;;;;;;;8.50;6.20;;;;;;;12.62;90.73;100979.34;105240;1257;69118;-63
2023/09/09 03:33:31;;;;;;;6.80;5.80;;;;;;;12.59;90.63;100978.40;105320;1259;69122;-63
2023/09/09 03:35:57;;;;;;;7.10;6.20;;;;;;;12.55;90.52;100977.83;105265;1256;75653;-63
2023/09/09 03:38:25;;;;;;;8.70;7.10;;;;;;;12.53;90.57;100976.34;105326;1259;83195;-63
2023/09/09 03:40:52;;;;;;;7.70;6.70;;;;;;;12.52;90.60;100977.95;105171;1257;73684;-63
2023/09/09 03:43:19;;;;;;;8.60;6.50;;;;;;;12.52;90.87;100975.50;105132;1256;69068;-63
2023/09/09 03:45:46;;;;;;;7.40;6.50;;;;;;;12.52;90.82;100981.27;105261;1257;69198;-63
2023/09/09 03:48:13;;;;;;;9.00;6.90;;;;;;;12.51;90.86;100982.17;105063;1256;75745;-63
2023/09/09 03:50:40;;;;;;;9.00;6.40;;;;;;;12.47;90.66;100980.75;105301;1257;82687;-63
2023/09/09 03:53:07;;;;;;;7.20;6.30;;;;;;;12.43;90.40;100979.67;105276;1259;73829;-63
2023/09/09 03:55:34;;;;;;;7.20;6.00;;;;;;;12.40;90.46;100974.19;105111;1256;69175;-63
2023/09/09 03:58:01;;;;;;;8.10;6.90;;;;;;;12.37;90.38;100974.96;105282;1257;69137;-63
2023/09/09 04:00:30;;;;;;;9.40;7.10;;;;;;;12.36;90.55;100977.11;105379;1257;74523;-63
2023/09/09 04:02:57;;;;;;;8.40;7.40;;;;;;;12.36;90.95;100975.88;105326;1259;83578;-63
2023/09/09 04:05:24;;;;;;;9.90;8.00;;;;;;;12.37;90.96;100978.67;105149;1256;73417;-63
2023/09/09 04:07:52;;;;;;;8.40;7.10;;;;;;;12.34;90.66;100979.27;105281;1259;70902;-63
2023/09/09 04:10:19;;;;;;;9.40;7.10;;;;;;;12.33;90.83;100977.36;105285;1259;69170;-63
2023/09/09 04:12:48;;;;;;;10.40;7.50;;;;;;;12.32;90.85;100978.15;105370;1257;74538;-63
2023/09/09 04:15:15;;;;;;;10.60;7.50;;;;;;;12.33;91.35;100977.91;105360;1259;83353;-63
2023/09/09 04:17:42;;;;;;;9.10;8.00;;;;;;;12.34;91.14;100976.65;105136;1257;72589;-63
2023/09/09 04:20:09;;;;;;;8.50;7.60;;;;;;;12.33;91.15;100980.03;105205;1257;69163;-63
2023/09/09 04:22:37;;;;;;;10.60;7.70;;;;;;;12.32;91.21;100979.00;105298;1259;69207;-63
2023/09/09 04:25:04;;;;;;;14.00;8.60;;;;;;;12.34;91.42;100982.98;105374;1257;74531;-63
2023/09/09 04:27:31;;;;;;;9.20;7.80;;;;;;;12.35;91.59;100985.20;105290;1261;83237;-63
2023/09/09 04:29:58;;;;;;;8.80;7.60;;;;;;;12.35;91.65;100989.92;105135;1257;73579;-63
2023/09/09 04:32:26;;;;;;;11.70;7.60;;;;;;;12.35;91.48;100990.79;105377;1257;69015;-63
2023/09/09 04:34:54;;;;;;;9.60;8.20;;;;;;;12.36;91.58;100990.25;105304;1259;69211;-63
2023/09/09 04:37:21;;;;;;;8.60;7.50;;;;;;;12.37;91.73;100989.00;105132;1258;75473;-63
2023/09/09 04:39:48;;;;;;;8.90;7.90;;;;;;;12.39;91.67;100989.45;105252;1259;82334;-63
2023/09/09 04:42:16;;;;;;;10.00;7.60;;;;;;;12.40;91.86;100988.00;105088;1256;72696;-63
2023/09/09 04:44:43;;;;;;;9.60;8.00;;;;;;;12.44;92.00;100988.23;105249;1259;69208;-64
2023/09/09 04:47:10;;;;;;;10.20;8.30;;;;;;;12.47;92.26;100988.48;105194;1261;69212;-64
2023/09/09 04:49:37;;;;;;;10.10;7.90;;;;;;;12.51;92.37;100987.10;105260;1256;75740;-63
2023/09/09 04:52:05;;;;;;;8.90;7.50;;;;;;;12.55;92.67;100987.64;105262;1256;83582;-64
2023/09/09 04:54:32;;;;;;;9.80;8.20;;;;;;;12.60;92.75;100986.44;105218;1256;72675;-63
2023/09/09 04:56:59;;;;;;;9.40;8.10;;;;;;;12.64;92.94;100987.33;105096;1261;69139;-63
2023/09/09 04:59:26;;;;;;;10.40;7.80;;;;;;;12.68;92.99;100986.30;105212;1259;69192;-63
2023/09/09 05:01:53;;;;;;;10.50;7.90;;;;;;;12.74;93.08;100991.54;105300;1257;74675;-63
2023/09/09 05:04:21;;;;;;;10.10;8.20;;;;;;;12.79;93.37;100990.65;105154;1257;83280;-63
2023/09/09 05:06:48;;;;;;;10.90;8.70;;;;;;;12.85;93.49;100988.86;105134;1260;73626;-63
2023/09/09 05:09:15;;;;;;;10.30;7.80;;;;;;;12.89;93.54;100992.35;105342;1255;69178;-63
2023/09/09 05:11:42;;;;;;;11.40;7.90;;;;;;;12.96;93.73;100994.05;105144;1257;69132;-63
2023/09/09 05:14:09;;;;;;;11.60;8.50;;;;;;;13.01;93.90;100991.40;105295;1256;75449;-63
2023/09/09 05:16:37;;;;;;;11.80;9.50;;;;;;;13.09;94.15;100993.73;105135;1256;83607;-63
2023/09/09 05:19:04;;;;;;;11.80;9.30;;;;;;;13.17;94.43;100992.88;105152;1257;72669;-63
2023/09/09 05:21:31;;;;;;;10.40;8.90;;;;;;;13.25;94.52;100995.26;105142;1257;69174;-63
2023/09/09 05:23:58;;;;;;;10.80;9.30;;;;;;;13.29;94.28;101002.47;105263;1259;69198;-63
2023/09/09 05:26:26;;;;;;;12.10;8.70;;;;;;;13.34;94.38;101003.35;105256;1257;74563;-63
2023/09/09 05:28:52;;;;;;;11.50;9.10;;;;;;;13.39;94.39;101005.77;105247;1259;83247;-63
2023/09/09 05:31:19;;;;;;;10.20;8.70;;;;;;;13.46;94.66;101006.58;105304;1259;73512;-63
2023/09/09 05:33:46;;;;;;;11.20;9.30;;;;;;;13.54;94.90;101003.45;105243;1259;69200;-63
2023/09/09 05:36:14;;;;;;;11.70;9.40;;;;;;;13.63;95.01;101003.27;105276;1259;69241;-63
2023/09/09 05:38:42;;;;;;;11.60;9.40;;;;;;;13.71;95.23;101003.61;105342;1257;76202;-63
2023/09/09 05:41:09;;;;;;;10.40;9.20;;;;;;;13.79;95.18;101005.56;105182;1261;83584;-63
2023/09/09 05:43:36;;;;;;;10.90;9.80;;;;;;;13.87;95.38;101003.48;105260;1257;73710;-63
2023/09/09 05:46:04;;;;;;;12.70;9.30;;;;;;;13.97;95.68;101004.17;105316;1256;69012;-63
2023/09/09 05:48:32;;;;;;;11.30;8.80;;;;;;;14.07;95.90;101004.78;105220;1257;69172;-63
2023/09/09 05:50:59;;;;;;;11.10;9.60;;;;;;;14.17;96.12;101000.83;105247;1257;75641;-63
2023/09/09 05:53:26;;;;;;;11.10;9.00;;;;;;;14.27;96.55;100997.05;105192;1260;83905;-63
2023/09/09 05:55:53;;;;;;;12.00;9.30;;;;;;;14.38;96.68;100995.19;105156;1257;73739;-63
2023/09/09 05:58:20;;;;;;;11.10;10.00;;;;;;;14.48;96.81;100997.04;105233;1257;69065;-63
2023/09/09 06:00:47;;;;;;;11.50;10.10;;;;;;;14.60;97.14;100993.39;105327;1261;69241;-63
2023/09/09 06:03:15;;;;;;;12.30;10.90;;;;;;;14.73;97.36;100995.10;105225;1256;75831;-63
2023/09/09 06:05:42;;;;;;;12.00;10.80;;;;;;;14.87;97.63;101003.10;105361;1259;83289;-63
2023/09/09 06:08:09;;;;;;;14.00;11.80;;;;;;;15.01;98.03;101007.01;105224;1259;73946;-63
2023/09/09 06:10:36;;;;;;;13.80;12.40;;;;;;;15.14;98.03;101005.70;105101;1260;69214;-63
2023/09/09 06:13:03;;;;;;;15.50;12.60;;;;;;;15.28;98.29;101008.96;105223;1256;69099;-63
2023/09/09 06:15:31;;;;;;;15.70;14.10;;;;;;;15.44;98.50;101010.29;105278;1256;75936;-63
2023/09/09 06:17:59;;;;;;;16.30;12.80;;;;;;;15.60;98.56;101012.70;105242;1257;82393;-63
2023/09/09 06:20:27;;;;;;;14.40;12.70;;;;;;;15.75;98.33;101015.53;105327;1256;73609;-63
2023/09/09 06:22:55;;;;;;;15.80;12.90;;;;;;;15.90;98.31;101010.58;105300;1256;69032;-63
2023/09/09 06:25:22;;;;;;;16.00;13.10;;;;;;;16.04;98.25;101013.19;105161;1260;69192;-63
2023/09/09 06:27:49;;;;;;;15.00;13.00;;;;;;;16.19;98.32;101011.05;105258;1257;74590;-63
2023/09/09 06:30:16;;;;;;;15.40;13.20;;;;;;;16.34;98.21;101009.59;105225;1259;83438;-63
2023/09/09 06:32:43;;;;;;;18.00;14.40;;;;;;;16.48;98.16;101007.45;105246;1259;73739;-63
2023/09/09 06:35:11;;;;;;;16.80;13.00;;;;;;;16.61;97.92;101007.46;105259;1258;69227;-64
2023/09/09 06:37:38;;;;;;;22.90;15.50;;;;;;;16.76;97.81;101009.73;105257;1257;69192;-63
2023/09/09 06:40:07;;;;;;;17.70;14.80;;;;;;;16.89;97.82;101013.06;105235;1257;74548;-63
2023/09/09 06:42:34;;;;;;;16.30;14.60;;;;;;;17.03;97.64;101016.23;105299;1257;83826;-64
2023/09/09 06:45:03;;;;;;;19.40;15.40;;;;;;;17.17;97.50;101012.97;105221;1257;73636;-63
2023/09/09 06:47:29;;;;;;;16.80;14.80;;;;;;;17.30;97.13;101015.09;105272;1259;69263;-64
2023/09/09 06:49:56;;;;;;;17.60;14.20;;;;;;;17.43;96.86;101024.27;105249;1259;69184;-64
2023/09/09 06:52:23;;;;;;;18.50;15.80;;;;;;;17.55;96.54;101026.23;105159;1256;75622;-63
2023/09/09 06:54:50;;;;;;;17.40;14.20;;;;;;;17.66;95.98;101026.69;105244;1257;82462;-63
2023/09/09 06:57:17;;;;;;;17.60;14.80;;;;;;;17.75;95.79;101026.00;105227;1259;72699;-63
2023/09/09 06:59:44;;;;;;;15.60;13.10;;;;;;;17.85;95.72;101023.83;105213;1259;69269;-63
2023/09/09 07:02:11;;;;;;;18.00;13.80;;;;;;;17.97;95.62;101024.77;105299;1259;69202;-63
2023/09/09 07:04:38;;;;;;;17.60;15.10;;;;;;;18.10;95.53;101029.34;105254;1259;74617;-63
2023/09/09 07:07:05;;;;;;;22.50;14.50;;;;;;;18.20;95.26;101028.88;105221;1259;82425;-63
2023/09/09 07:09:41;;;;;;;17.90;13.90;;;;;;;18.30;94.76;101032.02;105252;1256;73629;-64
2023/09/09 07:12:09;;;;;;;16.30;13.90;;;;;;;18.38;94.55;101036.86;105125;1257;69202;-64
2023/09/09 07:14:36;;;;;;;15.20;13.40;;;;;;;18.47;94.24;101039.52;105192;1259;69154;-63
2023/09/09 07:17:08;;;;;;;16.70;14.00;;;;;;;18.54;93.78;101035.72;105271;1259;75560;-63
2023/09/09 07:19:34;;;;;;;16.70;14.50;;;;;;;18.61;93.29;101039.36;105176;1257;81546;-63
2023/09/09 07:22:01;;;;;;;15.80;14.00;;;;;;;18.68;93.14;101039.30;105112;1256;73130;-63
2023/09/09 07:24:28;;;;;;;16.70;13.70;;;;;;;18.76;93.11;101043.66;105219;1256;69210;-64
2023/09/09 07:26:57;;;;;;;15.60;13.30;;;;;;;18.87;93.02;101040.65;105210;1258;69131;-64
2023/09/09 07:29:24;;;;;;;16.60;13.10;;;;;;;18.99;92.90;101038.86;105228;1256;75424;-64
2023/09/09 07:31:50;;;;;;;15.10;12.50;;;;;;;19.10;92.77;101037.63;105398;1259;82398;-64
2023/09/09 07:34:19;;;;;;;17.20;12.80;;;;;;;19.18;92.34;101035.17;105193;1256;72621;-64
2023/09/09 07:36:47;;;;;;;16.20;12.80;;;;;;;19.28;92.11;101031.75;105311;1258;69190;-64
2023/09/09 07:39:14;;;;;;;15.50;13.00;;;;;;;19.36;91.64;101031.73;105316;1259;69173;-64
2023/09/09 07:41:42;;;;;;;17.10;12.30;;;;;;;19.43;91.46;101032.19;105241;1257;75757;-64
2023/09/09 07:44:09;;;;;;;15.40;12.10;;;;;;;19.52;91.27;101030.70;105305;1259;83326;-64
2023/09/09 07:46:36;;;;;;;13.50;11.90;;;;;;;19.61;90.82;101030.49;105210;1257;73876;-65
2023/09/09 07:49:03;;;;;;;14.00;11.90;;;;;;;19.71;90.37;101030.44;105279;1257;69188;-64
2023/09/09 07:51:30;;;;;;;15.40;11.00;;;;;;;19.78;90.08;101026.42;105242;1259;69183;-63
2023/09/09 07:53:57;;;;;;;14.30;12.10;;;;;;;19.88;90.22;101025.41;105269;1257;75405;-63
2023/09/09 07:56:24;;;;;;;14.80;11.50;;;;;;;20.00;89.78;101024.23;105108;1259;196648;-64
2023/09/09 07:58:51;;;;;;;14.30;12.60;;;;;;;20.13;89.56;101027.14;105208;1257;73358;-64
2023/09/09 08:01:18;;;;;;;15.10;10.30;;;;;;;20.21;88.91;101031.91;105284;1257;69130;-64
2023/09/09 08:03:45;;;;;;;14.00;11.20;;;;;;;20.32;89.24;101032.54;105243;1259;69173;-63
2023/09/09 08:06:12;;;;;;;12.00;10.80;;;;;;;20.50;89.24;101032.43;105271;1257;74650;-64
2023/09/09 08:08:39;;;;;;;13.00;10.80;;;;;;;20.68;89.04;101033.02;105212;1259;82328;-64
2023/09/09 08:11:06;;;;;;;15.60;10.50;;;;;;;20.82;88.58;101031.32;105246;1256;72509;-64
2023/09/09 08:13:34;;;;;;;13.10;10.70;;;;;;;20.91;87.96;101027.45;105266;1255;69193;-64
2023/09/09 08:16:00;;;;;;;17.30;10.40;;;;;;;21.06;88.12;101027.84;105261;1257;69183;-64
2023/09/09 08:18:28;;;;;;;11.60;9.70;;;;;;;21.26;88.19;101027.29;105191;1257;75694;-64
2023/09/09 08:20:55;;;;;;;15.10;10.40;;;;;;;21.46;87.88;101027.98;105251;1259;82785;-64
2023/09/09 08:23:24;;;;;;;12.50;10.30;;;;;;;21.62;87.13;101028.46;105298;1257;73620;-64
2023/09/09 08:25:51;;;;;;;16.50;10.20;;;;;;;21.75;86.67;101032.23;105213;1256;69130;-64
2023/09/09 08:28:18;;;;;;;12.00;9.40;;;;;;;21.90;85.87;101029.92;105229;1259;69102;-64
2023/09/09 08:30:47;;;;;;;11.10;9.50;;;;;;;22.00;85.52;101026.31;105330;1257;75695;-64
2023/09/09 08:33:14;;;;;;;13.40;9.80;;;;;;;22.18;85.59;101026.60;105277;1259;83433;-64
2023/09/09 08:35:41;;;;;;;11.10;9.00;;;;;;;22.36;85.10;101023.59;105206;1259;72723;-64
2023/09/09 08:38:08;;;;;;;11.20;9.90;;;;;;;22.54;84.89;101020.60;105268;1257;69270;-64
2023/09/09 08:40:45;;;;;;;14.30;10.40;;;;;;;22.71;84.41;101026.22;105247;1259;69177;-64
2023/09/09 08:43:24;;;;;;;11.10;9.40;;;;;;;22.87;83.74;101024.85;105215;1259;74519;-64
2023/09/09 08:45:54;;;;;;;11.90;9.50;;;;;;;23.02;83.40;101026.19;105274;1259;81265;-64
2023/09/09 08:48:23;;;;;;;11.20;8.90;;;;;;;23.14;82.75;101026.65;105222;1257;73766;-64
2023/09/09 08:50:51;;;;;;;10.90;8.70;;;;;;;23.31;82.36;101025.80;105289;1259;69110;-64
2023/09/09 08:53:19;;;;;;;10.70;9.10;;;;;;;23.48;81.71;101020.17;105240;1256;69631;-64
2023/09/09 08:55:47;;;;;;;10.30;9.00;;;;;;;23.64;80.87;101016.89;105154;1257;75812;-64
2023/09/09 08:58:15;;;;;;;11.70;9.10;;;;;;;23.78;80.29;101012.55;105254;1259;82334;-64
2023/09/09 09:00:42;;;;;;;9.70;8.70;;;;;;;23.92;79.80;101004.60;105292;1259;73708;-64
2023/09/09 09:03:09;;;;;;;11.90;9.60;;;;;;;24.06;79.55;101007.49;105257;1257;69055;-64
2023/09/09 09:05:38;;;;;;;11.60;9.30;;;;;;;24.20;78.73;101006.84;105278;1262;69272;-66
2023/09/09 09:08:07;;;;;;;9.90;8.80;;;;;;;24.37;78.55;101003.67;105349;1256;76190;-65
2023/09/09 09:10:34;;;;;;;14.30;9.70;;;;;;;24.56;77.99;101004.20;105257;1259;83241;-65
2023/09/09 09:13:01;;;;;;;15.10;10.10;;;;;;;24.71;77.47;101000.76;105303;1257;73529;-63
2023/09/09 09:15:32;;;;;;;9.80;8.80;;;;;;;24.87;77.15;100998.27;105265;1259;69125;-62
2023/09/09 09:18:00;;;;;;;14.60;9.00;;;;;;;25.04;76.74;100993.35;105309;1259;69094;-62
2023/09/09 09:20:29;;;;;;;10.10;8.80;;;;;;;25.20;76.33;100992.83;105334;1257;75630;-64
2023/09/09 09:23:01;;;;;;;10.30;9.00;;;;;;;25.37;75.77;100993.48;105307;1259;83216;-63
2023/09/09 09:25:35;;;;;;;9.40;8.40;;;;;;;25.53;75.16;100994.21;105270;1259;73698;-63
2023/09/09 09:28:03;;;;;;;8.60;7.30;;;;;;;25.69;74.62;100993.45;105262;1257;69521;-63
2023/09/09 09:30:31;;;;;;;7.90;7.00;;;;;;;25.88;73.65;100991.93;105259;1259;69215;-63
2023/09/09 09:32:58;;;;;;;8.70;7.60;;;;;;;26.06;72.88;100991.64;105227;1259;74656;-63
2023/09/09 09:35:33;;;;;;;9.30;7.40;;;;;;;26.27;72.04;100992.94;105323;1259;83305;-63
2023/09/09 09:38:09;;;;;;;9.00;7.40;;;;;;;26.45;71.12;100986.78;105240;1259;73675;-63
2023/09/09 09:40:39;;;;;;;8.20;6.80;;;;;;;26.64;70.42;100984.98;105221;1259;69166;-63
2023/09/09 09:43:19;;;;;;;7.70;6.70;;;;;;;26.88;70.22;100988.44;105279;1259;69170;-63
2023/09/09 09:45:47;;;;;;;9.80;6.30;;;;;;;27.11;69.25;100991.02;105292;1259;75598;-63
2023/09/09 09:48:32;;;;;;;8.60;6.50;;;;;;;27.28;68.01;100987.03;105233;1257;82461;-63
2023/09/09 09:50:59;;;;;;;6.20;5.60;;;;;;;27.46;67.19;100988.70;105274;1256;72835;-63
2023/09/09 09:53:26;;;;;;;7.80;5.50;;;;;;;27.66;66.54;100990.59;105194;1257;69190;-63
2023/09/09 09:55:55;;;;;;;8.70;5.30;;;;;;;27.87;64.95;100991.11;105267;1259;69242;-63
2023/09/09 09:58:24;;;;;;;6.90;4.90;;;;;;;28.06;63.87;100988.80;105285;1257;75672;-63
2023/09/09 10:00:53;;;;;;;14.90;6.00;;;;;;;28.21;62.64;100988.33;105219;1259;83369;-63
2023/09/09 10:03:23;;;;;;;7.60;5.60;;;;;;;28.39;61.66;100988.66;105259;1257;73725;-63
2023/09/09 10:05:52;;;;;;;7.10;4.90;;;;;;;28.58;60.60;100988.20;105201;1259;69189;-63
2023/09/09 10:08:35;;;;;;;6.70;4.80;;;;;;;28.78;59.97;100983.16;105306;1259;69189;-63
2023/09/09 10:11:04;;;;;;;8.20;5.20;;;;;;;29.05;59.06;100983.23;105194;1259;74781;-63
2023/09/09 10:13:34;;;;;;;;;;;;;;;29.31;58.17;100985.10;105252;1257;83215;-63
2023/09/09 10:16:01;;;;;;;7.00;5.10;;;;;;;29.55;57.08;100983.11;105118;1259;73912;-63
2023/09/09 10:18:28;;;;;;;8.40;5.00;;;;;;;29.75;56.73;100981.13;105059;1262;69215;-63
2023/09/09 10:20:56;;;;;;;4.60;4.00;;;;;;;30.02;55.96;100975.04;105152;1256;69174;-63
2023/09/09 10:23:26;;;;;;;5.20;4.70;;;;;;;30.19;55.11;100972.41;105236;1259;75621;-63
2023/09/09 10:25:53;;;;;;;5.20;4.20;;;;;;;30.34;54.08;100972.77;105181;1259;82421;-63
2023/09/09 10:28:20;;;;;;;5.20;4.40;;;;;;;30.49;53.28;100972.00;105087;1261;72753;-63
2023/09/09 10:30:48;;;;;;;6.70;4.40;;;;;;;30.58;52.27;100971.47;105222;1257;69126;-63
2023/09/09 10:33:17;;;;;;;6.90;5.70;;;;;;;30.69;51.68;100966.16;105267;1259;69189;-63
2023/09/09 10:35:47;;;;;;;6.70;5.20;;;;;;;30.89;51.13;100972.60;105375;1261;75738;-63
2023/09/09 10:38:15;;;;;;;7.80;5.00;;;;;;;31.03;50.57;100973.99;105242;1259;84305;-65
2023/09/09 10:40:42;;;;;;;5.20;4.30;;;;;;;31.08;49.86;100971.23;105367;1259;73625;-69
2023/09/09 10:43:09;;;;;;;6.20;4.80;;;;;;;31.23;49.66;100970.98;105295;1257;69183;-67
2023/09/09 10:45:43;;;;;;;5.10;4.60;;;;;;;31.34;49.25;100967.38;105228;1259;69183;-64
2023/09/09 10:48:11;;;;;;;5.40;4.30;;;;;;;31.47;48.54;100970.14;105259;1259;75687;-64
2023/09/09 10:50:52;;;;;;;6.50;4.40;;;;;;;31.65;48.14;100962.88;105209;1260;83224;-64
2023/09/09 10:53:28;;;;;;;5.30;4.60;;;;;;;31.85;47.79;100963.23;105239;1259;73058;-63
2023/09/09 10:55:58;;;;;;;4.60;4.20;;;;;;;31.99;47.48;100951.19;105213;1257;69187;-63
2023/09/09 10:58:33;;;;;;;5.00;4.50;;;;;;;32.07;46.93;100954.41;105186;1260;69193;-63
2023/09/09 11:01:01;;;;;;;6.40;4.50;;;;;;;32.08;46.17;100955.08;105217;1261;75588;-63
2023/09/09 11:03:38;;;;;;;4.50;4.10;;;;;;;32.13;45.48;100949.41;105216;1259;83210;-63
2023/09/09 11:06:07;;;;;;;5.00;4.40;;;;;;;32.30;45.78;100952.22;105185;1256;74113;-63
2023/09/09 11:08:43;;;;;;;7.90;4.60;;;;;;;32.47;45.15;100954.02;105189;1259;69207;-63
2023/09/09 11:11:23;;;;;;;6.80;4.70;;;;;;;32.58;44.54;100952.85;105265;1259;69290;-63
2023/09/09 11:14:11;;;;;;;6.70;4.60;;;;;;;32.74;44.16;100952.39;105216;1259;75515;-63
2023/09/09 11:16:39;;;;;;;6.20;4.40;;;;;;;32.85;43.95;100946.70;105259;1259;83293;-63